createdAt,value
2022-09-30T00:02:18.806Z,7.06
2022-09-30T00:07:20.530Z,7.03
2022-09-30T00:12:22.367Z,7.01
2022-09-30T00:17:24.342Z,7.01
2022-09-30T00:22:26.140Z,7.01
2022-09-30T00:27:27.962Z,7.03
2022-09-30T00:32:29.717Z,7.07
2022-09-30T00:37:31.475Z,7.05
2022-09-30T00:42:33.213Z,7.07
2022-09-30T00:48:10.955Z,7.07
2022-09-30T00:53:26.724Z,7.01
2022-09-30T00:58:36.031Z,6.98
2022-09-30T01:03:43.253Z,6.97
2022-09-30T01:08:45.751Z,6.98
2022-09-30T01:13:52.683Z,6.99
2022-09-30T01:19:31.093Z,6.95
2022-09-30T01:25:04.776Z,6.92
2022-09-30T01:30:17.500Z,6.84
2022-09-30T01:35:48.928Z,6.79
2022-09-30T01:41:10.073Z,6.81
2022-09-30T01:46:34.164Z,6.83
2022-09-30T01:51:47.503Z,6.94
2022-09-30T01:56:55.295Z,7.00
2022-09-30T02:02:06.918Z,7.01
2022-09-30T02:07:17.643Z,7.02
2022-09-30T02:12:22.410Z,7.01
2022-09-30T02:17:35.867Z,7.06
2022-09-30T02:22:48.408Z,7.08
2022-09-30T02:27:55.292Z,7.14
2022-09-30T02:33:02.231Z,7.08
2022-09-30T02:38:10.311Z,7.03
2022-09-30T02:43:12.078Z,6.99
2022-09-30T02:48:35.516Z,7.00
2022-09-30T02:53:57.507Z,7.07
2022-09-30T02:58:59.254Z,7.10
2022-09-30T03:04:06.192Z,7.26
2022-09-30T03:09:09.026Z,7.16
2022-09-30T03:14:32.167Z,7.24
2022-09-30T03:20:04.905Z,7.17
2022-09-30T03:25:21.286Z,7.05
2022-09-30T03:30:29.378Z,7.00
2022-09-30T03:35:36.898Z,7.04
2022-09-30T03:40:53.725Z,7.01
2022-09-30T03:46:31.444Z,7.02
2022-09-30T03:51:39.324Z,7.00
2022-09-30T03:56:44.429Z,6.93
2022-09-30T04:01:46.173Z,6.86
2022-09-30T04:06:48.144Z,6.85
2022-09-30T04:11:49.873Z,6.86
2022-09-30T04:16:53.915Z,6.72
2022-09-30T04:21:55.869Z,6.55
2022-09-30T04:26:57.635Z,6.64
2022-09-30T04:31:59.466Z,6.72
2022-09-30T04:37:01.218Z,6.72
2022-09-30T04:42:02.990Z,6.68
2022-09-30T04:47:04.874Z,6.69
2022-09-30T04:52:06.638Z,6.69
2022-09-30T04:57:33.660Z,6.66
2022-09-30T05:02:35.761Z,6.71
2022-09-30T05:07:37.538Z,6.80
2022-09-30T05:12:41.081Z,6.85
2022-09-30T05:17:42.859Z,6.87
2022-09-30T05:22:44.907Z,6.89
2022-09-30T05:27:49.468Z,6.93
2022-09-30T05:32:51.282Z,6.94
2022-09-30T05:37:53.039Z,7.00
2022-09-30T05:42:57.146Z,7.04
2022-09-30T05:47:59.334Z,7.06
2022-09-30T05:53:01.057Z,7.25
2022-09-30T05:58:02.810Z,7.38
2022-09-30T06:03:04.634Z,7.48
2022-09-30T06:08:07.254Z,7.66
2022-09-30T06:13:10.346Z,7.75
2022-09-30T06:18:17.010Z,7.95
2022-09-30T06:23:20.373Z,8.07
2022-09-30T06:28:22.788Z,8.11
2022-09-30T06:33:24.518Z,8.02
2022-09-30T06:38:28.766Z,7.93
2022-09-30T06:43:30.571Z,7.93
2022-09-30T06:48:38.229Z,8.00
2022-09-30T06:53:40.642Z,8.15
2022-09-30T06:58:43.069Z,8.39
2022-09-30T07:03:58.184Z,8.27
2022-09-30T07:09:00.063Z,8.22
2022-09-30T07:14:01.901Z,8.26
2022-09-30T07:19:05.488Z,8.52
2022-09-30T07:24:07.311Z,8.63
2022-09-30T07:29:09.112Z,8.74
2022-09-30T07:34:11.194Z,8.82
2022-09-30T07:39:12.986Z,8.96
2022-09-30T07:44:15.218Z,9.16
2022-09-30T07:49:25.633Z,9.34
2022-09-30T07:54:30.340Z,9.46
2022-09-30T07:59:36.082Z,9.38
2022-09-30T08:04:42.901Z,9.39
2022-09-30T08:09:45.724Z,9.44
2022-09-30T08:14:47.552Z,9.71
2022-09-30T08:19:49.304Z,10.34
2022-09-30T08:24:51.060Z,10.87
2022-09-30T08:29:55.505Z,11.21
2022-09-30T08:34:59.233Z,11.56
2022-09-30T08:40:01.362Z,11.87
2022-09-30T08:45:18.231Z,12.26
2022-09-30T08:50:43.165Z,12.76
2022-09-30T08:55:46.457Z,12.82
2022-09-30T09:00:50.388Z,13.20
2022-09-30T09:06:19.794Z,13.75
2022-09-30T09:11:43.517Z,14.04
2022-09-30T09:16:48.173Z,13.78
2022-09-30T09:21:59.898Z,13.75
2022-09-30T09:27:18.671Z,13.92
2022-09-30T09:32:25.859Z,14.18
2022-09-30T09:38:02.498Z,14.24
2022-09-30T09:43:18.707Z,14.33
2022-09-30T09:48:23.431Z,14.60
2022-09-30T09:53:45.354Z,15.11
2022-09-30T09:59:13.252Z,15.28
2022-09-30T10:04:16.262Z,15.00
2022-09-30T10:09:30.382Z,15.07
2022-09-30T10:14:50.173Z,15.45
2022-09-30T10:20:19.978Z,15.50
2022-09-30T10:25:24.707Z,16.44
2022-09-30T10:30:55.685Z,16.97
2022-09-30T10:36:04.564Z,17.26
2022-09-30T10:41:06.576Z,18.52
2022-09-30T10:46:26.919Z,19.22
2022-09-30T10:51:35.976Z,18.07
2022-09-30T10:56:42.923Z,16.29
2022-09-30T11:01:52.610Z,17.42
2022-09-30T11:07:11.812Z,17.00
2022-09-30T11:12:27.403Z,15.38
2022-09-30T11:17:41.306Z,14.69
2022-09-30T11:22:49.098Z,16.59
2022-09-30T11:28:15.745Z,21.55
2022-09-30T11:33:30.604Z,25.38
2022-09-30T11:38:40.415Z,24.07
2022-09-30T11:43:54.355Z,24.45
2022-09-30T11:49:15.505Z,25.18
2022-09-30T11:54:38.539Z,24.12
2022-09-30T12:00:05.062Z,23.55
2022-09-30T12:05:19.855Z,23.68
2022-09-30T12:10:34.317Z,22.92
2022-09-30T12:15:42.567Z,22.93
2022-09-30T12:20:55.517Z,23.83
2022-09-30T12:26:02.700Z,24.29
2022-09-30T12:31:30.728Z,23.32
2022-09-30T12:36:36.971Z,20.40
2022-09-30T12:41:40.903Z,20.21
2022-09-30T12:46:42.695Z,21.27
2022-09-30T12:51:49.053Z,20.77
2022-09-30T12:56:57.142Z,22.08
2022-09-30T13:02:01.424Z,23.53
2022-09-30T13:07:03.231Z,21.04
2022-09-30T13:12:04.960Z,19.84
2022-09-30T13:17:06.676Z,18.56
2022-09-30T13:22:29.803Z,17.90
2022-09-30T13:27:55.650Z,20.51
2022-09-30T13:33:02.397Z,19.89
2022-09-30T13:38:17.826Z,19.04
2022-09-30T13:43:35.729Z,18.55
2022-09-30T13:48:41.279Z,18.04
2022-09-30T13:53:51.330Z,17.83
2022-09-30T13:59:26.887Z,17.87
2022-09-30T14:04:41.332Z,17.83
2022-09-30T14:09:49.130Z,17.84
2022-09-30T14:15:14.380Z,17.71
2022-09-30T14:20:34.413Z,17.18
2022-09-30T14:25:45.224Z,17.04
2022-09-30T14:31:06.926Z,17.33
2022-09-30T14:36:15.922Z,18.03
2022-09-30T14:41:23.339Z,17.94
2022-09-30T14:46:31.289Z,17.87
2022-09-30T14:51:43.499Z,17.96
2022-09-30T14:56:45.842Z,17.25
2022-09-30T15:01:51.543Z,16.42
2022-09-30T15:06:54.351Z,15.64
2022-09-30T15:11:58.345Z,15.06
2022-09-30T15:17:03.889Z,15.12
2022-09-30T15:22:10.550Z,15.48
2022-09-30T15:27:21.739Z,15.90
2022-09-30T15:32:25.795Z,16.17
2022-09-30T15:37:33.838Z,15.88
2022-09-30T15:42:41.500Z,15.42
2022-09-30T15:47:56.247Z,14.70
2022-09-30T15:53:05.168Z,14.10
2022-09-30T15:58:26.903Z,13.43
2022-09-30T16:03:31.299Z,12.96
2022-09-30T16:08:43.771Z,12.49
2022-09-30T16:13:46.025Z,12.05
2022-09-30T16:18:49.598Z,11.73
2022-09-30T16:23:51.402Z,11.42
2022-09-30T16:28:54.026Z,11.13
2022-09-30T16:33:55.963Z,10.80
2022-09-30T16:38:57.699Z,10.58
2022-09-30T16:43:59.470Z,10.44
2022-09-30T16:49:18.497Z,10.24
2022-09-30T16:54:22.712Z,10.06
2022-09-30T16:59:25.039Z,9.86
2022-09-30T17:04:28.051Z,9.55
2022-09-30T17:09:30.450Z,9.48
2022-09-30T17:14:32.788Z,9.28
2022-09-30T17:19:35.584Z,9.04
2022-09-30T17:24:37.365Z,8.88
2022-09-30T17:29:41.989Z,8.92
2022-09-30T17:34:44.884Z,8.93
2022-09-30T17:39:46.674Z,8.99
2022-09-30T17:44:48.609Z,8.97
2022-09-30T17:49:50.509Z,8.84
2022-09-30T17:54:53.095Z,8.79
2022-09-30T17:59:55.037Z,8.70
2022-09-30T18:04:56.808Z,8.71
2022-09-30T18:09:58.588Z,8.87
2022-09-30T18:15:00.492Z,8.85
2022-09-30T18:20:02.270Z,8.89
2022-09-30T18:25:23.193Z,8.87
2022-09-30T18:30:25.817Z,8.81
2022-09-30T18:35:27.893Z,8.77
2022-09-30T18:40:30.636Z,8.64
2022-09-30T18:45:40.605Z,8.56
2022-09-30T18:50:42.374Z,8.41
2022-09-30T18:55:44.353Z,8.24
2022-09-30T19:00:49.234Z,8.10
2022-09-30T19:05:51.083Z,7.89
2022-09-30T19:10:54.664Z,7.67
2022-09-30T19:16:03.129Z,7.49
2022-09-30T19:21:11.796Z,7.37
2022-09-30T19:26:15.608Z,7.40
2022-09-30T19:31:19.992Z,7.28
2022-09-30T19:36:21.989Z,7.18
2022-09-30T19:41:24.202Z,7.12
2022-09-30T19:46:26.066Z,7.10
2022-09-30T19:51:30.861Z,7.02
2022-09-30T19:56:33.106Z,7.03
2022-09-30T20:01:35.538Z,6.83
2022-09-30T20:06:37.832Z,6.80
2022-09-30T20:11:39.841Z,6.78
2022-09-30T20:16:43.667Z,6.61
2022-09-30T20:21:46.650Z,6.42
2022-09-30T20:26:50.278Z,6.28
2022-09-30T20:31:53.067Z,6.14
2022-09-30T20:36:54.833Z,6.03
2022-09-30T20:41:58.758Z,6.01
2022-09-30T20:47:02.127Z,5.84
2022-09-30T20:52:04.101Z,5.75
2022-09-30T20:57:07.603Z,5.66
2022-09-30T21:02:14.185Z,5.61
2022-09-30T21:07:16.083Z,5.53
2022-09-30T21:12:17.966Z,5.84
2022-09-30T21:17:19.725Z,5.89
2022-09-30T21:22:21.480Z,5.65
2022-09-30T21:27:23.254Z,5.50
2022-09-30T21:32:25.040Z,5.50
2022-09-30T21:37:26.976Z,5.62
2022-09-30T21:42:28.747Z,5.64
2022-09-30T21:47:33.563Z,5.55
2022-09-30T21:52:38.149Z,5.61
2022-09-30T21:57:40.171Z,5.44
2022-09-30T22:02:42.006Z,5.39
2022-09-30T22:07:45.958Z,5.49
2022-09-30T22:12:48.168Z,5.37
2022-09-30T22:17:53.208Z,5.21
2022-09-30T22:22:54.956Z,5.19
2022-09-30T22:27:56.748Z,5.06
2022-09-30T22:33:17.172Z,4.91
2022-09-30T22:38:22.016Z,4.81
2022-09-30T22:43:24.564Z,4.73
2022-09-30T22:48:28.800Z,4.68
2022-09-30T22:53:30.594Z,4.73
2022-09-30T22:58:32.361Z,4.71
2022-09-30T23:03:34.975Z,4.64
2022-09-30T23:08:42.039Z,4.48
2022-09-30T23:13:46.185Z,4.37
2022-09-30T23:18:51.064Z,4.31
2022-09-30T23:23:52.963Z,4.26
2022-09-30T23:29:03.456Z,4.15
2022-09-30T23:34:05.424Z,4.03
2022-09-30T23:39:19.496Z,3.93
2022-09-30T23:44:21.099Z,3.81
2022-09-30T23:49:22.604Z,3.83
2022-09-30T23:54:24.205Z,3.80
2022-09-30T23:59:25.764Z,3.76
